sensor_id;sensor_type;location;lat;lon;timestamp;P1;durP1;ratioP1;P2;durP2;ratioP2
15194;SDS011;7698;42.478;23.756;2024-01-30T00:00:15;4.63;;;3.80;;
15194;SDS011;7698;42.478;23.756;2024-01-30T00:02:41;4.30;;;3.33;;
15194;SDS011;7698;42.478;23.756;2024-01-30T00:05:11;4.07;;;3.40;;
15194;SDS011;7698;42.478;23.756;2024-01-30T00:07:39;4.30;;;3.88;;
15194;SDS011;7698;42.478;23.756;2024-01-30T00:10:07;4.17;;;3.37;;
15194;SDS011;7698;42.478;23.756;2024-01-30T00:12:34;5.70;;;3.85;;
15194;SDS011;7698;42.478;23.756;2024-01-30T00:15:01;4.60;;;3.40;;
15194;SDS011;7698;42.478;23.756;2024-01-30T00:17:29;4.70;;;3.58;;
15194;SDS011;7698;42.478;23.756;2024-01-30T00:19:56;3.42;;;3.10;;
15194;SDS011;7698;42.478;23.756;2024-01-30T00:22:23;4.22;;;3.25;;
15194;SDS011;7698;42.478;23.756;2024-01-30T00:24:51;4.13;;;3.20;;
15194;SDS011;7698;42.478;23.756;2024-01-30T00:27:17;4.85;;;3.28;;
15194;SDS011;7698;42.478;23.756;2024-01-30T00:29:44;4.38;;;3.67;;
15194;SDS011;7698;42.478;23.756;2024-01-30T00:32:11;3.97;;;3.50;;
15194;SDS011;7698;42.478;23.756;2024-01-30T00:34:37;4.53;;;3.70;;
15194;SDS011;7698;42.478;23.756;2024-01-30T00:37:04;3.88;;;3.20;;
15194;SDS011;7698;42.478;23.756;2024-01-30T00:39:31;4.05;;;3.65;;
15194;SDS011;7698;42.478;23.756;2024-01-30T00:41:59;4.60;;;3.13;;
15194;SDS011;7698;42.478;23.756;2024-01-30T00:44:26;3.75;;;3.35;;
15194;SDS011;7698;42.478;23.756;2024-01-30T00:46:53;3.60;;;3.30;;
15194;SDS011;7698;42.478;23.756;2024-01-30T00:49:19;4.07;;;3.67;;
15194;SDS011;7698;42.478;23.756;2024-01-30T00:51:46;3.80;;;3.50;;
15194;SDS011;7698;42.478;23.756;2024-01-30T00:54:13;5.00;;;3.23;;
15194;SDS011;7698;42.478;23.756;2024-01-30T00:56:39;3.90;;;2.90;;
15194;SDS011;7698;42.478;23.756;2024-01-30T00:59:07;3.42;;;3.13;;
15194;SDS011;7698;42.478;23.756;2024-01-30T01:01:34;4.03;;;3.30;;
15194;SDS011;7698;42.478;23.756;2024-01-30T01:04:01;2.65;;;2.40;;
15194;SDS011;7698;42.478;23.756;2024-01-30T01:06:28;3.67;;;3.13;;
15194;SDS011;7698;42.478;23.756;2024-01-30T01:08:54;3.17;;;2.88;;
15194;SDS011;7698;42.478;23.756;2024-01-30T01:11:21;3.10;;;2.80;;
15194;SDS011;7698;42.478;23.756;2024-01-30T01:13:48;2.83;;;2.38;;
15194;SDS011;7698;42.478;23.756;2024-01-30T01:16:16;4.43;;;3.33;;
15194;SDS011;7698;42.478;23.756;2024-01-30T01:18:42;3.25;;;2.95;;
15194;SDS011;7698;42.478;23.756;2024-01-30T01:21:09;2.73;;;2.37;;
15194;SDS011;7698;42.478;23.756;2024-01-30T01:23:35;3.30;;;3.00;;
15194;SDS011;7698;42.478;23.756;2024-01-30T01:26:02;3.17;;;2.87;;
15194;SDS011;7698;42.478;23.756;2024-01-30T01:28:29;3.17;;;2.87;;
15194;SDS011;7698;42.478;23.756;2024-01-30T01:30:55;3.33;;;3.00;;
15194;SDS011;7698;42.478;23.756;2024-01-30T01:33:25;5.10;;;4.10;;
15194;SDS011;7698;42.478;23.756;2024-01-30T01:35:52;4.00;;;3.63;;
15194;SDS011;7698;42.478;23.756;2024-01-30T01:38:18;3.70;;;3.25;;
15194;SDS011;7698;42.478;23.756;2024-01-30T01:40:45;4.13;;;3.30;;
15194;SDS011;7698;42.478;23.756;2024-01-30T01:43:11;3.47;;;3.13;;
15194;SDS011;7698;42.478;23.756;2024-01-30T01:45:38;4.53;;;3.72;;
15194;SDS011;7698;42.478;23.756;2024-01-30T01:48:04;3.50;;;3.13;;
15194;SDS011;7698;42.478;23.756;2024-01-30T01:50:32;4.63;;;3.53;;
15194;SDS011;7698;42.478;23.756;2024-01-30T01:52:59;4.38;;;3.45;;
15194;SDS011;7698;42.478;23.756;2024-01-30T01:55:25;4.03;;;3.60;;
15194;SDS011;7698;42.478;23.756;2024-01-30T01:57:53;3.60;;;2.83;;
15194;SDS011;7698;42.478;23.756;2024-01-30T02:00:20;4.00;;;3.27;;
15194;SDS011;7698;42.478;23.756;2024-01-30T02:02:46;3.07;;;2.73;;
15194;SDS011;7698;42.478;23.756;2024-01-30T02:05:14;3.77;;;3.10;;
15194;SDS011;7698;42.478;23.756;2024-01-30T02:07:42;3.07;;;2.73;;
15194;SDS011;7698;42.478;23.756;2024-01-30T02:10:08;4.23;;;3.50;;
15194;SDS011;7698;42.478;23.756;2024-01-30T02:12:35;3.37;;;3.00;;
15194;SDS011;7698;42.478;23.756;2024-01-30T02:15:02;2.92;;;2.63;;
15194;SDS011;7698;42.478;23.756;2024-01-30T02:17:30;3.73;;;2.93;;
15194;SDS011;7698;42.478;23.756;2024-01-30T02:19:56;4.00;;;3.60;;
15194;SDS011;7698;42.478;23.756;2024-01-30T02:22:24;2.50;;;2.30;;
15194;SDS011;7698;42.478;23.756;2024-01-30T02:24:51;3.35;;;2.70;;
15194;SDS011;7698;42.478;23.756;2024-01-30T02:27:17;4.00;;;3.13;;
15194;SDS011;7698;42.478;23.756;2024-01-30T02:29:44;4.43;;;3.00;;
15194;SDS011;7698;42.478;23.756;2024-01-30T02:32:10;3.45;;;3.15;;
15194;SDS011;7698;42.478;23.756;2024-01-30T02:34:37;4.28;;;3.88;;
15194;SDS011;7698;42.478;23.756;2024-01-30T02:37:04;4.78;;;4.00;;
15194;SDS011;7698;42.478;23.756;2024-01-30T02:39:32;3.92;;;3.40;;
15194;SDS011;7698;42.478;23.756;2024-01-30T02:41:58;4.93;;;3.90;;
15194;SDS011;7698;42.478;23.756;2024-01-30T02:44:25;2.90;;;2.63;;
15194;SDS011;7698;42.478;23.756;2024-01-30T02:46:51;2.63;;;2.30;;
15194;SDS011;7698;42.478;23.756;2024-01-30T02:49:19;3.27;;;2.97;;
15194;SDS011;7698;42.478;23.756;2024-01-30T02:51:45;4.38;;;2.85;;
15194;SDS011;7698;42.478;23.756;2024-01-30T02:54:12;4.53;;;3.22;;
15194;SDS011;7698;42.478;23.756;2024-01-30T02:56:40;4.75;;;3.25;;
15194;SDS011;7698;42.478;23.756;2024-01-30T02:59:06;4.82;;;3.20;;
15194;SDS011;7698;42.478;23.756;2024-01-30T03:01:33;4.47;;;3.40;;
15194;SDS011;7698;42.478;23.756;2024-01-30T03:03:59;4.10;;;3.20;;
15194;SDS011;7698;42.478;23.756;2024-01-30T03:06:26;4.67;;;3.47;;
15194;SDS011;7698;42.478;23.756;2024-01-30T03:08:52;3.33;;;2.88;;
15194;SDS011;7698;42.478;23.756;2024-01-30T03:11:19;3.67;;;2.90;;
15194;SDS011;7698;42.478;23.756;2024-01-30T03:13:47;4.20;;;3.30;;
15194;SDS011;7698;42.478;23.756;2024-01-30T03:16:13;4.57;;;3.30;;
15194;SDS011;7698;42.478;23.756;2024-01-30T03:18:40;4.20;;;3.20;;
15194;SDS011;7698;42.478;23.756;2024-01-30T03:21:06;3.22;;;2.67;;
15194;SDS011;7698;42.478;23.756;2024-01-30T03:23:33;3.87;;;3.10;;
15194;SDS011;7698;42.478;23.756;2024-01-30T03:26:00;3.87;;;2.90;;
15194;SDS011;7698;42.478;23.756;2024-01-30T03:28:27;3.40;;;3.10;;
15194;SDS011;7698;42.478;23.756;2024-01-30T03:30:54;3.50;;;3.20;;
15194;SDS011;7698;42.478;23.756;2024-01-30T03:33:21;3.90;;;3.50;;
15194;SDS011;7698;42.478;23.756;2024-01-30T03:35:47;4.60;;;3.60;;
15194;SDS011;7698;42.478;23.756;2024-01-30T03:38:14;4.30;;;3.30;;
15194;SDS011;7698;42.478;23.756;2024-01-30T03:40:40;4.23;;;3.83;;
15194;SDS011;7698;42.478;23.756;2024-01-30T03:43:07;5.00;;;3.63;;
15194;SDS011;7698;42.478;23.756;2024-01-30T03:45:33;6.60;;;3.97;;
15194;SDS011;7698;42.478;23.756;2024-01-30T03:48:01;5.30;;;3.80;;
15194;SDS011;7698;42.478;23.756;2024-01-30T03:50:28;6.13;;;4.43;;
15194;SDS011;7698;42.478;23.756;2024-01-30T03:52:54;4.20;;;3.20;;
15194;SDS011;7698;42.478;23.756;2024-01-30T03:55:21;5.87;;;4.30;;
15194;SDS011;7698;42.478;23.756;2024-01-30T03:57:47;7.03;;;5.03;;
15194;SDS011;7698;42.478;23.756;2024-01-30T04:00:14;6.70;;;4.45;;
15194;SDS011;7698;42.478;23.756;2024-01-30T04:02:41;8.77;;;5.20;;
15194;SDS011;7698;42.478;23.756;2024-01-30T04:05:09;6.60;;;4.80;;
15194;SDS011;7698;42.478;23.756;2024-01-30T04:07:35;6.67;;;4.57;;
15194;SDS011;7698;42.478;23.756;2024-01-30T04:10:02;7.30;;;5.50;;
15194;SDS011;7698;42.478;23.756;2024-01-30T04:12:30;7.97;;;6.33;;
15194;SDS011;7698;42.478;23.756;2024-01-30T04:14:57;6.70;;;5.57;;
15194;SDS011;7698;42.478;23.756;2024-01-30T04:17:23;9.87;;;6.67;;
15194;SDS011;7698;42.478;23.756;2024-01-30T04:19:50;7.57;;;5.77;;
15194;SDS011;7698;42.478;23.756;2024-01-30T04:22:18;7.53;;;5.27;;
15194;SDS011;7698;42.478;23.756;2024-01-30T04:24:44;6.33;;;4.87;;
15194;SDS011;7698;42.478;23.756;2024-01-30T04:27:11;7.77;;;4.70;;
15194;SDS011;7698;42.478;23.756;2024-01-30T04:29:37;6.13;;;4.07;;
15194;SDS011;7698;42.478;23.756;2024-01-30T04:32:04;6.50;;;4.27;;
15194;SDS011;7698;42.478;23.756;2024-01-30T04:34:30;6.03;;;4.30;;
15194;SDS011;7698;42.478;23.756;2024-01-30T04:36:57;8.03;;;6.17;;
15194;SDS011;7698;42.478;23.756;2024-01-30T04:39:25;6.97;;;5.73;;
15194;SDS011;7698;42.478;23.756;2024-01-30T04:41:51;7.20;;;5.07;;
15194;SDS011;7698;42.478;23.756;2024-01-30T04:44:18;5.93;;;4.63;;
15194;SDS011;7698;42.478;23.756;2024-01-30T04:46:44;7.53;;;5.80;;
15194;SDS011;7698;42.478;23.756;2024-01-30T04:49:11;7.23;;;4.97;;
15194;SDS011;7698;42.478;23.756;2024-01-30T04:51:38;7.03;;;5.60;;
15194;SDS011;7698;42.478;23.756;2024-01-30T04:54:04;5.53;;;5.03;;
15194;SDS011;7698;42.478;23.756;2024-01-30T04:56:32;6.77;;;5.43;;
15194;SDS011;7698;42.478;23.756;2024-01-30T04:58:59;6.23;;;5.00;;
15194;SDS011;7698;42.478;23.756;2024-01-30T05:01:26;5.32;;;4.70;;
15194;SDS011;7698;42.478;23.756;2024-01-30T05:03:52;5.73;;;3.67;;
15194;SDS011;7698;42.478;23.756;2024-01-30T05:06:25;5.00;;;4.07;;
15194;SDS011;7698;42.478;23.756;2024-01-30T05:08:52;4.87;;;3.97;;
15194;SDS011;7698;42.478;23.756;2024-01-30T05:11:18;6.27;;;4.57;;
15194;SDS011;7698;42.478;23.756;2024-01-30T05:13:46;6.07;;;4.70;;
15194;SDS011;7698;42.478;23.756;2024-01-30T05:16:13;6.07;;;4.43;;
15194;SDS011;7698;42.478;23.756;2024-01-30T05:18:39;5.67;;;4.40;;
15194;SDS011;7698;42.478;23.756;2024-01-30T05:21:06;5.90;;;4.70;;
15194;SDS011;7698;42.478;23.756;2024-01-30T05:23:33;6.40;;;5.73;;
15194;SDS011;7698;42.478;23.756;2024-01-30T05:26:00;8.20;;;6.40;;
15194;SDS011;7698;42.478;23.756;2024-01-30T05:28:27;10.40;;;7.80;;
15194;SDS011;7698;42.478;23.756;2024-01-30T05:30:55;10.23;;;8.23;;
15194;SDS011;7698;42.478;23.756;2024-01-30T05:33:21;11.07;;;7.10;;
15194;SDS011;7698;42.478;23.756;2024-01-30T05:35:48;8.07;;;6.33;;
15194;SDS011;7698;42.478;23.756;2024-01-30T05:38:15;7.70;;;6.60;;
15194;SDS011;7698;42.478;23.756;2024-01-30T05:40:42;6.23;;;5.17;;
15194;SDS011;7698;42.478;23.756;2024-01-30T05:43:09;7.67;;;5.23;;
15194;SDS011;7698;42.478;23.756;2024-01-30T05:45:35;10.70;;;7.77;;
15194;SDS011;7698;42.478;23.756;2024-01-30T05:48:03;9.03;;;6.07;;
15194;SDS011;7698;42.478;23.756;2024-01-30T05:50:30;8.83;;;6.33;;
15194;SDS011;7698;42.478;23.756;2024-01-30T05:52:57;4.37;;;3.60;;
15194;SDS011;7698;42.478;23.756;2024-01-30T05:55:23;7.13;;;4.37;;
15194;SDS011;7698;42.478;23.756;2024-01-30T05:57:50;4.50;;;3.90;;
15194;SDS011;7698;42.478;23.756;2024-01-30T06:00:17;5.83;;;3.87;;
15194;SDS011;7698;42.478;23.756;2024-01-30T06:02:44;4.80;;;3.40;;
15194;SDS011;7698;42.478;23.756;2024-01-30T06:05:12;5.40;;;3.67;;
15194;SDS011;7698;42.478;23.756;2024-01-30T06:07:38;5.63;;;4.40;;
15194;SDS011;7698;42.478;23.756;2024-01-30T06:10:05;6.73;;;5.13;;
15194;SDS011;7698;42.478;23.756;2024-01-30T06:12:33;7.78;;;6.43;;
15194;SDS011;7698;42.478;23.756;2024-01-30T06:15:00;10.43;;;6.63;;
15194;SDS011;7698;42.478;23.756;2024-01-30T06:17:27;17.33;;;12.60;;
15194;SDS011;7698;42.478;23.756;2024-01-30T06:19:54;15.50;;;11.95;;
15194;SDS011;7698;42.478;23.756;2024-01-30T06:22:22;14.70;;;10.10;;
15194;SDS011;7698;42.478;23.756;2024-01-30T06:24:48;46.65;;;30.17;;
15194;SDS011;7698;42.478;23.756;2024-01-30T06:27:15;31.48;;;20.77;;
15194;SDS011;7698;42.478;23.756;2024-01-30T06:29:42;14.40;;;9.82;;
15194;SDS011;7698;42.478;23.756;2024-01-30T06:32:09;9.00;;;5.88;;
15194;SDS011;7698;42.478;23.756;2024-01-30T06:34:36;6.13;;;4.70;;
15194;SDS011;7698;42.478;23.756;2024-01-30T06:37:04;5.28;;;4.18;;
15194;SDS011;7698;42.478;23.756;2024-01-30T06:39:31;5.75;;;4.10;;
15194;SDS011;7698;42.478;23.756;2024-01-30T06:41:58;4.50;;;3.95;;
15194;SDS011;7698;42.478;23.756;2024-01-30T06:44:25;5.05;;;4.55;;
15194;SDS011;7698;42.478;23.756;2024-01-30T06:46:51;4.47;;;4.03;;
15194;SDS011;7698;42.478;23.756;2024-01-30T06:49:18;4.50;;;3.15;;
15194;SDS011;7698;42.478;23.756;2024-01-30T06:51:44;2.88;;;2.53;;
15194;SDS011;7698;42.478;23.756;2024-01-30T06:54:11;3.75;;;3.45;;
15194;SDS011;7698;42.478;23.756;2024-01-30T06:56:38;3.85;;;3.45;;
15194;SDS011;7698;42.478;23.756;2024-01-30T06:59:05;3.47;;;3.05;;
15194;SDS011;7698;42.478;23.756;2024-01-30T07:01:32;3.80;;;2.70;;
15194;SDS011;7698;42.478;23.756;2024-01-30T07:03:58;3.95;;;3.55;;
15194;SDS011;7698;42.478;23.756;2024-01-30T07:06:25;3.92;;;3.53;;
15194;SDS011;7698;42.478;23.756;2024-01-30T07:08:51;3.40;;;2.70;;
15194;SDS011;7698;42.478;23.756;2024-01-30T07:11:18;3.30;;;3.00;;
15194;SDS011;7698;42.478;23.756;2024-01-30T07:13:46;3.10;;;2.80;;
15194;SDS011;7698;42.478;23.756;2024-01-30T07:16:13;3.40;;;2.88;;
15194;SDS011;7698;42.478;23.756;2024-01-30T07:18:40;3.17;;;2.88;;
15194;SDS011;7698;42.478;23.756;2024-01-30T07:21:06;3.88;;;3.40;;
15194;SDS011;7698;42.478;23.756;2024-01-30T07:23:33;5.13;;;3.95;;
15194;SDS011;7698;42.478;23.756;2024-01-30T07:26:00;3.17;;;2.88;;
15194;SDS011;7698;42.478;23.756;2024-01-30T07:28:27;2.42;;;2.22;;
15194;SDS011;7698;42.478;23.756;2024-01-30T07:30:55;2.85;;;2.63;;
15194;SDS011;7698;42.478;23.756;2024-01-30T07:33:22;3.70;;;3.40;;
15194;SDS011;7698;42.478;23.756;2024-01-30T07:35:48;4.57;;;4.18;;
15194;SDS011;7698;42.478;23.756;2024-01-30T07:38:15;8.25;;;7.45;;
15194;SDS011;7698;42.478;23.756;2024-01-30T07:40:41;7.13;;;5.88;;
15194;SDS011;7698;42.478;23.756;2024-01-30T07:43:08;6.57;;;5.85;;
15194;SDS011;7698;42.478;23.756;2024-01-30T07:45:35;5.25;;;4.57;;
15194;SDS011;7698;42.478;23.756;2024-01-30T07:48:05;5.75;;;5.20;;
15194;SDS011;7698;42.478;23.756;2024-01-30T07:50:32;11.63;;;10.30;;
15194;SDS011;7698;42.478;23.756;2024-01-30T07:52:59;14.13;;;12.70;;
15194;SDS011;7698;42.478;23.756;2024-01-30T07:55:26;13.43;;;11.20;;
15194;SDS011;7698;42.478;23.756;2024-01-30T07:57:54;11.75;;;10.23;;
15194;SDS011;7698;42.478;23.756;2024-01-30T08:00:20;11.40;;;9.98;;
15194;SDS011;7698;42.478;23.756;2024-01-30T08:02:47;10.95;;;9.82;;
15194;SDS011;7698;42.478;23.756;2024-01-30T08:05:15;10.95;;;9.60;;
15194;SDS011;7698;42.478;23.756;2024-01-30T08:07:42;10.68;;;9.57;;
15194;SDS011;7698;42.478;23.756;2024-01-30T08:10:10;11.45;;;10.25;;
15194;SDS011;7698;42.478;23.756;2024-01-30T08:12:37;11.55;;;10.15;;
15194;SDS011;7698;42.478;23.756;2024-01-30T08:15:04;8.43;;;7.53;;
15194;SDS011;7698;42.478;23.756;2024-01-30T08:17:31;8.07;;;6.97;;
15194;SDS011;7698;42.478;23.756;2024-01-30T08:19:57;9.05;;;7.50;;
15194;SDS011;7698;42.478;23.756;2024-01-30T08:22:25;6.93;;;6.20;;
15194;SDS011;7698;42.478;23.756;2024-01-30T08:24:52;5.88;;;5.28;;
15194;SDS011;7698;42.478;23.756;2024-01-30T08:27:19;5.95;;;4.80;;
15194;SDS011;7698;42.478;23.756;2024-01-30T08:29:46;7.53;;;5.75;;
15194;SDS011;7698;42.478;23.756;2024-01-30T08:32:12;6.25;;;5.65;;
15194;SDS011;7698;42.478;23.756;2024-01-30T08:34:39;9.32;;;6.35;;
15194;SDS011;7698;42.478;23.756;2024-01-30T08:37:05;4.80;;;3.85;;
15194;SDS011;7698;42.478;23.756;2024-01-30T08:39:33;5.05;;;4.50;;
15194;SDS011;7698;42.478;23.756;2024-01-30T08:42:00;5.85;;;4.95;;
15194;SDS011;7698;42.478;23.756;2024-01-30T08:44:26;5.00;;;4.35;;
15194;SDS011;7698;42.478;23.756;2024-01-30T08:46:53;3.90;;;3.33;;
15194;SDS011;7698;42.478;23.756;2024-01-30T08:49:20;3.03;;;2.58;;
15194;SDS011;7698;42.478;23.756;2024-01-30T08:51:46;2.28;;;2.03;;
15194;SDS011;7698;42.478;23.756;2024-01-30T08:54:13;2.00;;;1.80;;
15194;SDS011;7698;42.478;23.756;2024-01-30T08:56:41;1.92;;;1.75;;
15194;SDS011;7698;42.478;23.756;2024-01-30T08:59:07;1.85;;;1.65;;
15194;SDS011;7698;42.478;23.756;2024-01-30T09:01:34;2.00;;;1.80;;
15194;SDS011;7698;42.478;23.756;2024-01-30T09:04:00;2.15;;;1.60;;
15194;SDS011;7698;42.478;23.756;2024-01-30T09:06:27;2.53;;;1.45;;
15194;SDS011;7698;42.478;23.756;2024-01-30T09:08:54;1.42;;;1.33;;
15194;SDS011;7698;42.478;23.756;2024-01-30T09:11:20;2.40;;;1.30;;
15194;SDS011;7698;42.478;23.756;2024-01-30T09:13:48;1.20;;;1.10;;
15194;SDS011;7698;42.478;23.756;2024-01-30T09:16:15;1.60;;;1.50;;
15194;SDS011;7698;42.478;23.756;2024-01-30T09:18:42;1.75;;;1.60;;
15194;SDS011;7698;42.478;23.756;2024-01-30T09:21:09;1.88;;;1.50;;
15194;SDS011;7698;42.478;23.756;2024-01-30T09:23:36;1.33;;;0.88;;
15194;SDS011;7698;42.478;23.756;2024-01-30T09:26:02;1.85;;;1.63;;
15194;SDS011;7698;42.478;23.756;2024-01-30T09:28:29;1.85;;;1.63;;
15194;SDS011;7698;42.478;23.756;2024-01-30T09:30:57;1.40;;;1.30;;
15194;SDS011;7698;42.478;23.756;2024-01-30T09:33:23;1.40;;;1.20;;
15194;SDS011;7698;42.478;23.756;2024-01-30T09:35:50;3.50;;;1.60;;
15194;SDS011;7698;42.478;23.756;2024-01-30T09:38:16;1.20;;;1.10;;
15194;SDS011;7698;42.478;23.756;2024-01-30T09:40:43;1.02;;;1.02;;
15194;SDS011;7698;42.478;23.756;2024-01-30T09:43:10;1.35;;;1.25;;
15194;SDS011;7698;42.478;23.756;2024-01-30T09:45:41;1.52;;;1.42;;
15194;SDS011;7698;42.478;23.756;2024-01-30T09:48:10;1.83;;;1.73;;
15194;SDS011;7698;42.478;23.756;2024-01-30T09:50:37;1.60;;;1.50;;
15194;SDS011;7698;42.478;23.756;2024-01-30T09:53:03;1.45;;;1.35;;
15194;SDS011;7698;42.478;23.756;2024-01-30T09:55:30;1.60;;;1.30;;
15194;SDS011;7698;42.478;23.756;2024-01-30T09:57:57;1.40;;;1.30;;
15194;SDS011;7698;42.478;23.756;2024-01-30T10:00:23;1.95;;;1.70;;
15194;SDS011;7698;42.478;23.756;2024-01-30T10:02:52;1.40;;;1.30;;
15194;SDS011;7698;42.478;23.756;2024-01-30T10:05:20;1.65;;;1.40;;
15194;SDS011;7698;42.478;23.756;2024-01-30T10:07:55;1.30;;;1.20;;
15194;SDS011;7698;42.478;23.756;2024-01-30T10:10:21;1.20;;;1.10;;
15194;SDS011;7698;42.478;23.756;2024-01-30T10:12:48;1.58;;;1.10;;
15194;SDS011;7698;42.478;23.756;2024-01-30T10:15:15;1.90;;;1.80;;
15194;SDS011;7698;42.478;23.756;2024-01-30T10:17:44;1.50;;;1.40;;
15194;SDS011;7698;42.478;23.756;2024-01-30T10:20:10;1.70;;;1.60;;
15194;SDS011;7698;42.478;23.756;2024-01-30T10:22:38;2.30;;;2.05;;
15194;SDS011;7698;42.478;23.756;2024-01-30T10:25:06;1.98;;;1.75;;
15194;SDS011;7698;42.478;23.756;2024-01-30T10:27:33;2.00;;;1.88;;
15194;SDS011;7698;42.478;23.756;2024-01-30T10:30:00;4.05;;;2.17;;
15194;SDS011;7698;42.478;23.756;2024-01-30T10:32:26;2.00;;;1.80;;
15194;SDS011;7698;42.478;23.756;2024-01-30T10:34:53;3.08;;;2.08;;
15194;SDS011;7698;42.478;23.756;2024-01-30T10:37:20;2.30;;;2.10;;
15194;SDS011;7698;42.478;23.756;2024-01-30T10:39:49;1.95;;;1.80;;
15194;SDS011;7698;42.478;23.756;2024-01-30T10:42:17;2.75;;;1.90;;
15194;SDS011;7698;42.478;23.756;2024-01-30T10:44:52;1.77;;;1.65;;
15194;SDS011;7698;42.478;23.756;2024-01-30T10:47:25;1.50;;;1.38;;
15194;SDS011;7698;42.478;23.756;2024-01-30T10:49:52;2.20;;;2.00;;
15194;SDS011;7698;42.478;23.756;2024-01-30T10:52:20;2.55;;;1.90;;
15194;SDS011;7698;42.478;23.756;2024-01-30T10:54:47;2.10;;;1.90;;
15194;SDS011;7698;42.478;23.756;2024-01-30T10:57:15;2.33;;;2.10;;
15194;SDS011;7698;42.478;23.756;2024-01-30T10:59:43;2.88;;;2.25;;
15194;SDS011;7698;42.478;23.756;2024-01-30T11:02:10;2.42;;;2.22;;
15194;SDS011;7698;42.478;23.756;2024-01-30T11:04:37;2.63;;;2.38;;
15194;SDS011;7698;42.478;23.756;2024-01-30T11:07:13;2.42;;;1.60;;
15194;SDS011;7698;42.478;23.756;2024-01-30T11:09:40;1.70;;;1.60;;
15194;SDS011;7698;42.478;23.756;2024-01-30T11:12:12;2.42;;;2.08;;
15194;SDS011;7698;42.478;23.756;2024-01-30T11:14:40;2.50;;;2.10;;
15194;SDS011;7698;42.478;23.756;2024-01-30T11:17:06;1.90;;;1.80;;
15194;SDS011;7698;42.478;23.756;2024-01-30T11:19:37;1.92;;;1.80;;
15194;SDS011;7698;42.478;23.756;2024-01-30T11:22:06;2.47;;;2.28;;
15194;SDS011;7698;42.478;23.756;2024-01-30T11:24:36;2.42;;;2.15;;
15194;SDS011;7698;42.478;23.756;2024-01-30T11:27:07;1.95;;;1.70;;
15194;SDS011;7698;42.478;23.756;2024-01-30T11:29:34;2.15;;;1.65;;
15194;SDS011;7698;42.478;23.756;2024-01-30T11:32:03;2.35;;;1.92;;
15194;SDS011;7698;42.478;23.756;2024-01-30T11:34:30;2.83;;;1.70;;
15194;SDS011;7698;42.478;23.756;2024-01-30T11:36:59;1.83;;;1.60;;
15194;SDS011;7698;42.478;23.756;2024-01-30T11:39:29;2.28;;;1.75;;
15194;SDS011;7698;42.478;23.756;2024-01-30T11:41:56;1.80;;;1.70;;
15194;SDS011;7698;42.478;23.756;2024-01-30T11:44:23;1.98;;;1.77;;
15194;SDS011;7698;42.478;23.756;2024-01-30T11:46:51;1.63;;;1.52;;
15194;SDS011;7698;42.478;23.756;2024-01-30T11:49:19;1.15;;;1.05;;
15194;SDS011;7698;42.478;23.756;2024-01-30T11:51:46;1.98;;;1.88;;
15194;SDS011;7698;42.478;23.756;2024-01-30T11:54:14;1.50;;;1.40;;
15194;SDS011;7698;42.478;23.756;2024-01-30T11:56:40;1.50;;;1.40;;
15194;SDS011;7698;42.478;23.756;2024-01-30T11:59:07;1.52;;;1.33;;
15194;SDS011;7698;42.478;23.756;2024-01-30T12:01:34;1.52;;;1.27;;
15194;SDS011;7698;42.478;23.756;2024-01-30T12:04:00;1.48;;;1.38;;
15194;SDS011;7698;42.478;23.756;2024-01-30T12:06:29;1.65;;;1.50;;
15194;SDS011;7698;42.478;23.756;2024-01-30T12:08:56;1.50;;;1.40;;
15194;SDS011;7698;42.478;23.756;2024-01-30T12:11:23;2.60;;;2.00;;
15194;SDS011;7698;42.478;23.756;2024-01-30T12:13:50;2.00;;;1.80;;
15194;SDS011;7698;42.478;23.756;2024-01-30T12:16:17;1.92;;;1.83;;
15194;SDS011;7698;42.478;23.756;2024-01-30T12:18:44;1.67;;;1.58;;
15194;SDS011;7698;42.478;23.756;2024-01-30T12:21:10;1.92;;;1.63;;
15194;SDS011;7698;42.478;23.756;2024-01-30T12:23:39;2.38;;;2.17;;
15194;SDS011;7698;42.478;23.756;2024-01-30T12:26:06;2.03;;;1.92;;
15194;SDS011;7698;42.478;23.756;2024-01-30T12:28:32;2.72;;;1.90;;
15194;SDS011;7698;42.478;23.756;2024-01-30T12:31:01;1.70;;;1.60;;
15194;SDS011;7698;42.478;23.756;2024-01-30T12:33:28;1.80;;;1.70;;
15194;SDS011;7698;42.478;23.756;2024-01-30T12:35:56;1.73;;;1.63;;
15194;SDS011;7698;42.478;23.756;2024-01-30T12:38:22;2.83;;;1.80;;
15194;SDS011;7698;42.478;23.756;2024-01-30T12:40:52;1.80;;;1.70;;
15194;SDS011;7698;42.478;23.756;2024-01-30T12:43:20;2.15;;;1.92;;
15194;SDS011;7698;42.478;23.756;2024-01-30T12:45:47;2.10;;;1.90;;
15194;SDS011;7698;42.478;23.756;2024-01-30T12:48:13;5.95;;;2.53;;
15194;SDS011;7698;42.478;23.756;2024-01-30T12:50:41;2.15;;;1.95;;
15194;SDS011;7698;42.478;23.756;2024-01-30T12:53:07;2.00;;;1.80;;
15194;SDS011;7698;42.478;23.756;2024-01-30T12:55:34;2.67;;;1.60;;
15194;SDS011;7698;42.478;23.756;2024-01-30T12:58:02;1.95;;;1.85;;
15194;SDS011;7698;42.478;23.756;2024-01-30T13:00:29;1.85;;;1.75;;
15194;SDS011;7698;42.478;23.756;2024-01-30T13:02:56;3.08;;;1.70;;
15194;SDS011;7698;42.478;23.756;2024-01-30T13:05:23;2.03;;;1.88;;
15194;SDS011;7698;42.478;23.756;2024-01-30T13:07:50;2.75;;;2.20;;
15194;SDS011;7698;42.478;23.756;2024-01-30T13:10:17;2.15;;;1.90;;
15194;SDS011;7698;42.478;23.756;2024-01-30T13:12:43;1.67;;;1.58;;
15194;SDS011;7698;42.478;23.756;2024-01-30T13:15:11;2.40;;;2.20;;
15194;SDS011;7698;42.478;23.756;2024-01-30T13:17:38;2.63;;;2.40;;
15194;SDS011;7698;42.478;23.756;2024-01-30T13:20:05;2.78;;;2.22;;
15194;SDS011;7698;42.478;23.756;2024-01-30T13:22:33;2.25;;;2.05;;
15194;SDS011;7698;42.478;23.756;2024-01-30T13:25:00;2.50;;;2.17;;
15194;SDS011;7698;42.478;23.756;2024-01-30T13:27:26;3.45;;;2.47;;
15194;SDS011;7698;42.478;23.756;2024-01-30T13:29:53;2.42;;;2.20;;
15194;SDS011;7698;42.478;23.756;2024-01-30T13:32:21;2.72;;;2.22;;
15194;SDS011;7698;42.478;23.756;2024-01-30T13:34:48;3.03;;;2.60;;
15194;SDS011;7698;42.478;23.756;2024-01-30T13:37:14;2.60;;;2.40;;
15194;SDS011;7698;42.478;23.756;2024-01-30T13:39:41;2.53;;;2.33;;
15194;SDS011;7698;42.478;23.756;2024-01-30T13:42:07;2.88;;;2.65;;
15194;SDS011;7698;42.478;23.756;2024-01-30T13:44:34;5.38;;;2.67;;
15194;SDS011;7698;42.478;23.756;2024-01-30T13:47:01;2.50;;;2.30;;
15194;SDS011;7698;42.478;23.756;2024-01-30T13:49:30;3.00;;;2.70;;
15194;SDS011;7698;42.478;23.756;2024-01-30T13:51:56;2.75;;;2.45;;
15194;SDS011;7698;42.478;23.756;2024-01-30T13:54:23;2.80;;;2.35;;
15194;SDS011;7698;42.478;23.756;2024-01-30T13:56:50;2.60;;;2.30;;
15194;SDS011;7698;42.478;23.756;2024-01-30T13:59:16;2.47;;;2.28;;
15194;SDS011;7698;42.478;23.756;2024-01-30T14:01:48;2.28;;;2.08;;
15194;SDS011;7698;42.478;23.756;2024-01-30T14:04:15;3.15;;;2.85;;
15194;SDS011;7698;42.478;23.756;2024-01-30T14:06:43;2.28;;;2.08;;
15194;SDS011;7698;42.478;23.756;2024-01-30T14:09:09;2.72;;;2.40;;
15194;SDS011;7698;42.478;23.756;2024-01-30T14:11:36;2.60;;;2.40;;
15194;SDS011;7698;42.478;23.756;2024-01-30T14:14:03;3.10;;;2.53;;
15194;SDS011;7698;42.478;23.756;2024-01-30T14:16:29;3.00;;;2.35;;
15194;SDS011;7698;42.478;23.756;2024-01-30T14:18:56;2.67;;;2.45;;
15194;SDS011;7698;42.478;23.756;2024-01-30T14:21:23;3.03;;;2.72;;
15194;SDS011;7698;42.478;23.756;2024-01-30T14:23:51;4.15;;;2.88;;
15194;SDS011;7698;42.478;23.756;2024-01-30T14:26:17;2.25;;;2.03;;
15194;SDS011;7698;42.478;23.756;2024-01-30T14:28:44;3.28;;;2.83;;
15194;SDS011;7698;42.478;23.756;2024-01-30T14:31:12;2.90;;;2.58;;
15194;SDS011;7698;42.478;23.756;2024-01-30T14:33:39;3.28;;;2.60;;
15194;SDS011;7698;42.478;23.756;2024-01-30T14:36:05;2.47;;;2.28;;
15194;SDS011;7698;42.478;23.756;2024-01-30T14:38:33;2.75;;;2.53;;
15194;SDS011;7698;42.478;23.756;2024-01-30T14:41:01;2.60;;;2.35;;
15194;SDS011;7698;42.478;23.756;2024-01-30T14:43:29;2.40;;;2.20;;